JES3070 SABE-SAME
Flight info
| Callsign | JES3070 |
|---|---|
| Flight time | 1h 24m |
| Altitude | 36000 |
| Route | PAL9 NEPIS DCT NIN UL405 PAPIR PAPIR3Q |
| Aircraft | A320/M-SDE3FGHIRWY/LB1 |
Departure
| Time | 2026-05-09 17:10 |
|---|---|
| Airport | Aeroparque Jorge Newbery (SABE) |
Arrival
| Time | 2026-05-09 18:34 |
|---|---|
| Airport | Governor Francisco Gabrielli International Airport (SAME) |
| Time | Latitude | Longitude | Altitude | Speed | Heading |
|---|---|---|---|---|---|
| 2026-05-09 16:42 | -34.55777 | -58.41286 | 31 ft | 0 kts | 36° |
| 2026-05-09 17:00 | -34.55795 | -58.41301 | 31 ft | 4 kts | 28° |
| 2026-05-09 17:00 | -34.55808 | -58.41309 | 27 ft | 2 kts | 5° |
| 2026-05-09 17:00 | -34.55819 | -58.41309 | 28 ft | 2 kts | 319° |
| 2026-05-09 17:01 | -34.55830 | -58.41294 | 29 ft | 2 kts | 302° |
| 2026-05-09 17:01 | -34.55836 | -58.41281 | 32 ft | 2 kts | 300° |
| 2026-05-09 17:01 | -34.55844 | -58.41265 | 31 ft | 3 kts | 300° |
| 2026-05-09 17:01 | -34.55855 | -58.41243 | 32 ft | 3 kts | 300° |
| 2026-05-09 17:02 | -34.55865 | -58.41222 | 29 ft | 3 kts | 299° |
| 2026-05-09 17:02 | -34.55870 | -58.41210 | 30 ft | 0 kts | 298° |
| 2026-05-09 17:05 | -34.55865 | -58.41222 | 28 ft | 4 kts | 298° |
| 2026-05-09 17:05 | -34.55863 | -58.41280 | 30 ft | 12 kts | 231° |
| 2026-05-09 17:05 | -34.55901 | -58.41358 | 37 ft | 12 kts | 292° |
| 2026-05-09 17:06 | -34.55861 | -58.41453 | 30 ft | 13 kts | 297° |
| 2026-05-09 17:06 | -34.55818 | -58.41557 | 30 ft | 14 kts | 297° |
| 2026-05-09 17:06 | -34.55771 | -58.41667 | 28 ft | 15 kts | 297° |
| 2026-05-09 17:06 | -34.55721 | -58.41784 | 26 ft | 17 kts | 303° |
| 2026-05-09 17:07 | -34.55647 | -58.41915 | 29 ft | 20 kts | 304° |
| 2026-05-09 17:07 | -34.55596 | -58.42006 | 31 ft | 20 kts | 304° |
| 2026-05-09 17:07 | -34.55504 | -58.42160 | 27 ft | 16 kts | 307° |
| 2026-05-09 17:07 | -34.55445 | -58.42254 | 28 ft | 12 kts | 307° |
| 2026-05-09 17:08 | -34.55404 | -58.42320 | 27 ft | 9 kts | 307° |
| 2026-05-09 17:08 | -34.55366 | -58.42411 | 25 ft | 10 kts | 281° |
| 2026-05-09 17:08 | -34.55382 | -58.42504 | 30 ft | 12 kts | 213° |
| 2026-05-09 17:09 | -34.55424 | -58.42473 | 30 ft | 0 kts | 126° |
| 2026-05-09 17:09 | -34.55429 | -58.42465 | 28 ft | 8 kts | 126° |
| 2026-05-09 17:09 | -34.55587 | -58.42185 | 27 ft | 78 kts | 124° |
| 2026-05-09 17:10 | -34.56013 | -58.41421 | 28 ft | 136 kts | 124° |
| 2026-05-09 17:10 | -34.56580 | -58.40424 | 464 ft | 145 kts | 128° |
| 2026-05-09 17:10 | -34.57108 | -58.39384 | 1062 ft | 146 kts | 132° |
| 2026-05-09 17:10 | -34.57511 | -58.38182 | 1408 ft | 172 kts | 108° |
| 2026-05-09 17:11 | -34.57501 | -58.36607 | 1698 ft | 203 kts | 81° |
| 2026-05-09 17:11 | -34.56828 | -58.34986 | 2018 ft | 231 kts | 48° |
| 2026-05-09 17:11 | -34.55565 | -58.33580 | 2403 ft | 261 kts | 42° |
| 2026-05-09 17:11 | -34.54129 | -58.32050 | 2885 ft | 288 kts | 42° |
| 2026-05-09 17:12 | -34.52559 | -58.30543 | 3892 ft | 290 kts | 30° |
| 2026-05-09 17:12 | -34.50646 | -58.29730 | 4736 ft | 295 kts | 5° |
| 2026-05-09 17:12 | -34.48624 | -58.29911 | 5672 ft | 290 kts | 340° |
| 2026-05-09 17:12 | -34.46832 | -58.30944 | 6694 ft | 283 kts | 317° |
| 2026-05-09 17:13 | -34.45493 | -58.32628 | 7675 ft | 275 kts | 297° |
| 2026-05-09 17:13 | -34.44741 | -58.34705 | 8643 ft | 267 kts | 277° |
| 2026-05-09 17:13 | -34.44624 | -58.36915 | 9640 ft | 262 kts | 259° |
| 2026-05-09 17:13 | -34.45124 | -58.39020 | 10515 ft | 261 kts | 241° |
| 2026-05-09 17:14 | -34.46181 | -58.40804 | 11372 ft | 263 kts | 223° |
| 2026-05-09 17:14 | -34.47656 | -58.42150 | 12196 ft | 268 kts | 214° |
| 2026-05-09 17:14 | -34.49195 | -58.43465 | 13029 ft | 273 kts | 216° |
| 2026-05-09 17:14 | -34.50703 | -58.44897 | 13887 ft | 278 kts | 219° |
| 2026-05-09 17:15 | -34.52171 | -58.46459 | 14686 ft | 283 kts | 222° |
| 2026-05-09 17:15 | -34.53566 | -58.48116 | 15465 ft | 289 kts | 224° |
| 2026-05-09 17:15 | -34.54986 | -58.49973 | 15726 ft | 312 kts | 227° |
| 2026-05-09 17:15 | -34.56401 | -58.52057 | 16180 ft | 326 kts | 230° |
| 2026-05-09 17:16 | -34.57757 | -58.54290 | 16872 ft | 332 kts | 232° |
| 2026-05-09 17:17 | -34.60031 | -58.74143 | 21664 ft | 377 kts | 271° |
| 2026-05-09 17:18 | -34.59842 | -58.77326 | 22298 ft | 380 kts | 269° |
| 2026-05-09 17:18 | -34.59719 | -58.80548 | 22943 ft | 384 kts | 268° |
| 2026-05-09 17:18 | -34.59634 | -58.83800 | 23592 ft | 387 kts | 268° |
| 2026-05-09 17:18 | -34.59565 | -58.87087 | 24143 ft | 392 kts | 268° |
| 2026-05-09 17:19 | -34.59490 | -58.90410 | 24675 ft | 396 kts | 268° |
| 2026-05-09 17:19 | -34.59403 | -58.93773 | 25216 ft | 401 kts | 268° |
| 2026-05-09 17:19 | -34.59304 | -58.97126 | 25741 ft | 405 kts | 269° |
| 2026-05-09 17:19 | -34.59195 | -59.00558 | 26275 ft | 409 kts | 269° |
| 2026-05-09 17:20 | -34.59079 | -59.04034 | 26795 ft | 414 kts | 269° |
| 2026-05-09 17:20 | -34.58962 | -59.07538 | 27343 ft | 417 kts | 269° |
| 2026-05-09 17:20 | -34.58842 | -59.11075 | 27878 ft | 421 kts | 269° |
| 2026-05-09 17:20 | -34.58720 | -59.14642 | 28406 ft | 426 kts | 269° |
| 2026-05-09 17:21 | -34.58597 | -59.18245 | 28930 ft | 430 kts | 269° |
| 2026-05-09 17:21 | -34.58470 | -59.21890 | 29451 ft | 434 kts | 269° |
| 2026-05-09 17:21 | -34.58343 | -59.25574 | 29977 ft | 438 kts | 269° |
| 2026-05-09 17:21 | -34.58216 | -59.29287 | 30429 ft | 442 kts | 269° |
| 2026-05-09 17:22 | -34.58087 | -59.33029 | 30841 ft | 445 kts | 269° |
| 2026-05-09 17:22 | -34.57958 | -59.36787 | 31305 ft | 446 kts | 269° |
| 2026-05-09 17:22 | -34.57828 | -59.40508 | 31732 ft | 448 kts | 269° |
| 2026-05-09 17:22 | -34.57693 | -59.44282 | 32285 ft | 446 kts | 269° |
| 2026-05-09 17:23 | -34.57557 | -59.48043 | 32871 ft | 445 kts | 269° |
| 2026-05-09 17:23 | -34.57419 | -59.51785 | 33475 ft | 442 kts | 270° |
| 2026-05-09 17:23 | -34.57281 | -59.55504 | 34077 ft | 440 kts | 269° |
| 2026-05-09 17:23 | -34.57144 | -59.59207 | 34584 ft | 438 kts | 269° |
| 2026-05-09 17:25 | -34.56784 | -59.77596 | 36146 ft | 434 kts | 268° |
| 2026-05-09 17:25 | -34.56727 | -59.81257 | 36152 ft | 433 kts | 268° |
| 2026-05-09 17:25 | -34.56595 | -59.88549 | 36159 ft | 432 kts | 268° |
| 2026-05-09 17:26 | -34.56452 | -59.95842 | 36161 ft | 433 kts | 268° |
| 2026-05-09 17:26 | -34.56302 | -60.03140 | 36160 ft | 433 kts | 268° |
| 2026-05-09 17:27 | -34.56149 | -60.10441 | 36174 ft | 433 kts | 268° |
| 2026-05-09 17:27 | -34.55991 | -60.17747 | 36167 ft | 433 kts | 267° |
| 2026-05-09 17:28 | -34.55834 | -60.25055 | 36168 ft | 433 kts | 267° |
| 2026-05-09 17:28 | -34.55669 | -60.32367 | 36188 ft | 434 kts | 268° |
| 2026-05-09 17:29 | -34.55500 | -60.39646 | 36193 ft | 434 kts | 268° |
| 2026-05-09 17:29 | -34.55317 | -60.46970 | 36194 ft | 434 kts | 268° |
| 2026-05-09 17:30 | -34.55138 | -60.54306 | 36201 ft | 434 kts | 267° |
| 2026-05-09 17:30 | -34.54964 | -60.61589 | 36206 ft | 434 kts | 267° |
| 2026-05-09 17:31 | -34.54771 | -60.68924 | 36217 ft | 434 kts | 267° |
| 2026-05-09 17:32 | -34.54277 | -60.87233 | 36221 ft | 434 kts | 267° |
| 2026-05-09 17:33 | -34.53938 | -60.94518 | 36220 ft | 439 kts | 275° |
| 2026-05-09 17:33 | -34.52814 | -61.01828 | 36233 ft | 440 kts | 276° |
| 2026-05-09 17:34 | -34.51684 | -61.09120 | 36217 ft | 440 kts | 275° |
| 2026-05-09 17:35 | -34.47706 | -61.34681 | 36228 ft | 442 kts | 275° |
| 2026-05-09 17:36 | -34.46553 | -61.41999 | 36229 ft | 442 kts | 275° |
| 2026-05-09 17:36 | -34.45405 | -61.49288 | 36243 ft | 443 kts | 275° |
| 2026-05-09 17:37 | -34.44237 | -61.56627 | 36252 ft | 443 kts | 276° |
| 2026-05-09 17:37 | -34.43063 | -61.63966 | 36268 ft | 443 kts | 275° |
| 2026-05-09 17:38 | -34.41885 | -61.71298 | 36271 ft | 444 kts | 276° |
| 2026-05-09 17:39 | -34.40108 | -61.82309 | 36425 ft | 446 kts | 276° |
| 2026-05-09 17:39 | -34.39508 | -61.86002 | 36817 ft | 447 kts | 276° |
| 2026-05-09 17:39 | -34.38913 | -61.89650 | 37219 ft | 447 kts | 276° |
| 2026-05-09 17:39 | -34.38313 | -61.93347 | 37579 ft | 448 kts | 275° |
| 2026-05-09 17:40 | -34.37711 | -61.97052 | 37901 ft | 449 kts | 275° |
| 2026-05-09 17:40 | -34.37103 | -62.00768 | 38200 ft | 451 kts | 275° |
| 2026-05-09 17:40 | -34.36483 | -62.04534 | 38270 ft | 452 kts | 275° |
| 2026-05-09 17:41 | -34.35263 | -62.11931 | 38280 ft | 451 kts | 275° |
| 2026-05-09 17:41 | -34.34034 | -62.19375 | 38278 ft | 450 kts | 276° |
| 2026-05-09 17:42 | -34.32798 | -62.26807 | 38283 ft | 452 kts | 275° |
| 2026-05-09 17:42 | -34.31558 | -62.34268 | 38286 ft | 453 kts | 275° |
| 2026-05-09 17:43 | -34.30314 | -62.41751 | 38296 ft | 453 kts | 275° |
| 2026-05-09 17:43 | -34.29060 | -62.49222 | 38301 ft | 454 kts | 275° |
| 2026-05-09 17:44 | -34.27800 | -62.56699 | 38272 ft | 454 kts | 274° |
| 2026-05-09 17:44 | -34.26532 | -62.64192 | 38279 ft | 455 kts | 274° |
| 2026-05-09 17:45 | -34.25264 | -62.71657 | 38302 ft | 456 kts | 275° |
| 2026-05-09 17:45 | -34.23992 | -62.79164 | 38315 ft | 456 kts | 275° |
| 2026-05-09 17:46 | -34.22710 | -62.86665 | 38286 ft | 456 kts | 274° |
| 2026-05-09 17:46 | -34.21631 | -62.92957 | 38295 ft | 457 kts | 274° |
| 2026-05-09 17:47 | -34.20332 | -63.00478 | 38302 ft | 457 kts | 274° |
| 2026-05-09 17:47 | -34.19043 | -63.07959 | 38313 ft | 458 kts | 274° |
| 2026-05-09 17:48 | -34.17742 | -63.15486 | 38294 ft | 458 kts | 274° |
| 2026-05-09 17:48 | -34.16426 | -63.23024 | 38298 ft | 459 kts | 274° |
| 2026-05-09 17:49 | -34.15105 | -63.30566 | 38317 ft | 459 kts | 274° |
| 2026-05-09 17:49 | -34.13777 | -63.38106 | 38319 ft | 459 kts | 275° |
| 2026-05-09 17:50 | -34.12323 | -63.45634 | 38298 ft | 461 kts | 275° |
| 2026-05-09 17:50 | -34.10045 | -63.56876 | 38315 ft | 462 kts | 275° |
| 2026-05-09 17:51 | -34.08543 | -63.64418 | 38326 ft | 462 kts | 274° |
| 2026-05-09 17:51 | -34.07050 | -63.71961 | 38333 ft | 462 kts | 274° |
| 2026-05-09 17:52 | -34.05557 | -63.79498 | 38308 ft | 462 kts | 273° |
| 2026-05-09 17:52 | -34.04048 | -63.87041 | 38324 ft | 463 kts | 274° |
| 2026-05-09 17:53 | -34.02544 | -63.94538 | 38331 ft | 463 kts | 274° |
| 2026-05-09 17:53 | -34.01035 | -64.02083 | 38337 ft | 463 kts | 274° |
| 2026-05-09 17:54 | -33.99523 | -64.09625 | 38320 ft | 463 kts | 273° |
| 2026-05-09 17:54 | -33.98002 | -64.17173 | 38337 ft | 463 kts | 273° |
| 2026-05-09 17:55 | -33.96477 | -64.24706 | 38342 ft | 463 kts | 273° |
| 2026-05-09 17:55 | -33.94944 | -64.32244 | 38343 ft | 463 kts | 273° |
| 2026-05-09 17:56 | -33.93406 | -64.39774 | 38318 ft | 463 kts | 273° |
| 2026-05-09 17:57 | -33.91102 | -64.51003 | 38345 ft | 462 kts | 272° |
| 2026-05-09 17:57 | -33.89566 | -64.58521 | 38352 ft | 462 kts | 273° |
| 2026-05-09 17:58 | -33.88015 | -64.66032 | 38357 ft | 463 kts | 273° |
| 2026-05-09 17:58 | -33.86456 | -64.73562 | 38365 ft | 463 kts | 273° |
| 2026-05-09 17:59 | -33.84891 | -64.81074 | 38367 ft | 463 kts | 273° |
| 2026-05-09 17:59 | -33.83321 | -64.88576 | 38367 ft | 463 kts | 273° |
| 2026-05-09 18:00 | -33.81758 | -64.96087 | 38365 ft | 463 kts | 273° |
| 2026-05-09 18:00 | -33.80195 | -65.03539 | 38342 ft | 463 kts | 272° |
| 2026-05-09 18:01 | -33.78611 | -65.11039 | 38357 ft | 463 kts | 272° |
| 2026-05-09 18:01 | -33.77026 | -65.18551 | 38367 ft | 463 kts | 272° |
| 2026-05-09 18:02 | -33.75438 | -65.26056 | 38372 ft | 463 kts | 272° |
| 2026-05-09 18:02 | -33.73836 | -65.33568 | 38349 ft | 464 kts | 273° |
| 2026-05-09 18:03 | -33.72211 | -65.41088 | 38361 ft | 466 kts | 274° |
| 2026-05-09 18:03 | -33.70454 | -65.48613 | 38373 ft | 468 kts | 275° |
| 2026-05-09 18:04 | -33.68644 | -65.56128 | 38381 ft | 468 kts | 275° |
| 2026-05-09 18:04 | -33.66851 | -65.63637 | 38333 ft | 468 kts | 274° |
| 2026-05-09 18:05 | -33.65074 | -65.71158 | 38348 ft | 468 kts | 274° |
| 2026-05-09 18:05 | -33.63296 | -65.78686 | 38364 ft | 469 kts | 274° |
| 2026-05-09 18:06 | -33.61516 | -65.86172 | 38374 ft | 470 kts | 275° |
| 2026-05-09 18:06 | -33.59718 | -65.93704 | 38307 ft | 470 kts | 275° |
| 2026-05-09 18:07 | -33.57909 | -66.01271 | 38388 ft | 473 kts | 275° |
| 2026-05-09 18:07 | -33.56092 | -66.08847 | 38407 ft | 472 kts | 275° |
| 2026-05-09 18:08 | -33.54257 | -66.16408 | 38411 ft | 471 kts | 275° |
| 2026-05-09 18:08 | -33.52431 | -66.23958 | 38406 ft | 471 kts | 275° |
| 2026-05-09 18:09 | -33.50623 | -66.31452 | 38183 ft | 478 kts | 275° |
| 2026-05-09 18:09 | -33.49698 | -66.35301 | 37916 ft | 482 kts | 275° |
| 2026-05-09 18:09 | -33.48742 | -66.39161 | 37651 ft | 485 kts | 277° |
| 2026-05-09 18:09 | -33.47665 | -66.43004 | 37393 ft | 488 kts | 279° |
| 2026-05-09 18:10 | -33.46470 | -66.46823 | 37128 ft | 490 kts | 281° |
| 2026-05-09 18:10 | -33.45635 | -66.49345 | 36960 ft | 491 kts | 281° |
| 2026-05-09 18:10 | -33.43916 | -66.54408 | 36617 ft | 490 kts | 281° |
| 2026-05-09 18:10 | -33.42644 | -66.58179 | 36306 ft | 487 kts | 281° |
| 2026-05-09 18:11 | -33.41454 | -66.61949 | 36062 ft | 480 kts | 278° |
| 2026-05-09 18:11 | -33.40430 | -66.65718 | 35750 ft | 472 kts | 275° |
| 2026-05-09 18:11 | -33.39541 | -66.69437 | 35257 ft | 469 kts | 273° |
| 2026-05-09 18:11 | -33.38704 | -66.73208 | 34782 ft | 467 kts | 272° |
| 2026-05-09 18:12 | -33.37877 | -66.76967 | 34263 ft | 467 kts | 272° |
| 2026-05-09 18:12 | -33.37025 | -66.80718 | 33744 ft | 466 kts | 273° |
| 2026-05-09 18:12 | -33.36140 | -66.84449 | 33248 ft | 465 kts | 274° |
| 2026-05-09 18:12 | -33.35224 | -66.88153 | 32761 ft | 464 kts | 275° |
| 2026-05-09 18:13 | -33.34288 | -66.91849 | 32250 ft | 462 kts | 275° |
| 2026-05-09 18:13 | -33.33359 | -66.95489 | 31793 ft | 460 kts | 275° |
| 2026-05-09 18:13 | -33.32434 | -66.99138 | 31323 ft | 458 kts | 275° |
| 2026-05-09 18:13 | -33.31520 | -67.02783 | 30857 ft | 457 kts | 275° |
| 2026-05-09 18:14 | -33.30615 | -67.06421 | 30391 ft | 455 kts | 275° |
| 2026-05-09 18:14 | -33.29713 | -67.10044 | 29917 ft | 453 kts | 276° |
| 2026-05-09 18:14 | -33.28812 | -67.13643 | 29488 ft | 450 kts | 276° |
| 2026-05-09 18:14 | -33.27929 | -67.17168 | 29071 ft | 447 kts | 276° |
| 2026-05-09 18:15 | -33.27041 | -67.20718 | 28637 ft | 444 kts | 276° |
| 2026-05-09 18:15 | -33.26159 | -67.24244 | 28199 ft | 441 kts | 276° |
| 2026-05-09 18:15 | -33.25270 | -67.27745 | 27788 ft | 439 kts | 277° |
| 2026-05-09 18:15 | -33.24329 | -67.31219 | 27346 ft | 439 kts | 278° |
| 2026-05-09 18:16 | -33.23349 | -67.34668 | 26907 ft | 437 kts | 279° |
| 2026-05-09 18:16 | -33.22349 | -67.38098 | 26455 ft | 436 kts | 279° |
| 2026-05-09 18:16 | -33.21348 | -67.41513 | 25997 ft | 435 kts | 279° |
| 2026-05-09 18:16 | -33.20370 | -67.44872 | 25547 ft | 433 kts | 279° |
| 2026-05-09 18:17 | -33.19392 | -67.48269 | 25075 ft | 432 kts | 279° |
| 2026-05-09 18:17 | -33.18422 | -67.51661 | 24602 ft | 431 kts | 279° |
| 2026-05-09 18:17 | -33.17460 | -67.55045 | 24096 ft | 430 kts | 279° |
| 2026-05-09 18:17 | -33.16506 | -67.58397 | 23792 ft | 422 kts | 280° |
| 2026-05-09 18:18 | -33.15563 | -67.61696 | 23315 ft | 418 kts | 280° |
| 2026-05-09 18:18 | -33.14632 | -67.64955 | 22642 ft | 411 kts | 280° |
| 2026-05-09 18:18 | -33.13715 | -67.68143 | 22208 ft | 399 kts | 280° |
| 2026-05-09 18:18 | -33.12821 | -67.71229 | 21778 ft | 388 kts | 280° |
| 2026-05-09 18:19 | -33.11980 | -67.74240 | 21338 ft | 376 kts | 276° |
| 2026-05-09 18:19 | -33.11341 | -67.80236 | 20518 ft | 360 kts | 265° |
| 2026-05-09 18:19 | -33.11138 | -67.83172 | 20119 ft | 358 kts | 266° |
| 2026-05-09 18:20 | -33.10928 | -67.86118 | 19723 ft | 355 kts | 266° |
| 2026-05-09 18:20 | -33.10719 | -67.89042 | 19317 ft | 353 kts | 266° |
| 2026-05-09 18:20 | -33.10510 | -67.91956 | 18925 ft | 351 kts | 267° |
| 2026-05-09 18:20 | -33.10301 | -67.94843 | 18504 ft | 349 kts | 267° |
| 2026-05-09 18:21 | -33.10091 | -67.97722 | 18088 ft | 345 kts | 268° |
| 2026-05-09 18:21 | -33.09883 | -68.00556 | 17699 ft | 342 kts | 268° |
| 2026-05-09 18:21 | -33.09681 | -68.03339 | 17314 ft | 339 kts | 268° |
| 2026-05-09 18:21 | -33.09479 | -68.06129 | 16927 ft | 336 kts | 268° |
| 2026-05-09 18:22 | -33.09279 | -68.08898 | 16542 ft | 334 kts | 268° |
| 2026-05-09 18:22 | -33.09077 | -68.11653 | 16161 ft | 332 kts | 269° |
| 2026-05-09 18:22 | -33.08875 | -68.14392 | 15774 ft | 330 kts | 269° |
| 2026-05-09 18:22 | -33.08678 | -68.17079 | 15399 ft | 328 kts | 269° |
| 2026-05-09 18:23 | -33.08479 | -68.19783 | 15007 ft | 327 kts | 270° |
| 2026-05-09 18:23 | -33.08281 | -68.22486 | 14631 ft | 325 kts | 270° |
| 2026-05-09 18:23 | -33.08083 | -68.25170 | 14248 ft | 324 kts | 271° |
| 2026-05-09 18:23 | -33.07885 | -68.27844 | 13829 ft | 323 kts | 271° |
| 2026-05-09 18:24 | -33.07685 | -68.30511 | 13439 ft | 321 kts | 271° |
| 2026-05-09 18:24 | -33.07487 | -68.33149 | 13052 ft | 318 kts | 271° |
| 2026-05-09 18:24 | -33.07290 | -68.35771 | 12670 ft | 316 kts | 271° |
| 2026-05-09 18:25 | -33.06902 | -68.40938 | 11907 ft | 313 kts | 271° |
| 2026-05-09 18:25 | -33.06707 | -68.43521 | 11527 ft | 311 kts | 271° |
| 2026-05-09 18:25 | -33.06511 | -68.46099 | 11142 ft | 310 kts | 271° |
| 2026-05-09 18:25 | -33.06316 | -68.48649 | 10762 ft | 308 kts | 271° |
| 2026-05-09 18:26 | -33.06122 | -68.51191 | 10382 ft | 307 kts | 272° |
| 2026-05-09 18:26 | -33.05930 | -68.53671 | 10048 ft | 292 kts | 272° |
| 2026-05-09 18:26 | -33.05749 | -68.56010 | 9675 ft | 280 kts | 272° |
| 2026-05-09 18:26 | -33.05576 | -68.58239 | 9523 ft | 261 kts | 272° |
| 2026-05-09 18:27 | -33.05411 | -68.60353 | 9189 ft | 252 kts | 272° |
| 2026-05-09 18:27 | -33.05304 | -68.61738 | 9104 ft | 247 kts | 271° |
| 2026-05-09 18:27 | -33.05212 | -68.64451 | 8779 ft | 248 kts | 269° |
| 2026-05-09 18:27 | -33.05201 | -68.66516 | 8430 ft | 249 kts | 267° |
| 2026-05-09 18:28 | -33.05200 | -68.68555 | 8184 ft | 244 kts | 267° |
| 2026-05-09 18:28 | -33.05197 | -68.70568 | 7678 ft | 243 kts | 268° |
| 2026-05-09 18:28 | -33.05190 | -68.72578 | 7176 ft | 242 kts | 269° |
| 2026-05-09 18:28 | -33.05176 | -68.74600 | 6650 ft | 243 kts | 271° |
| 2026-05-09 18:29 | -33.05161 | -68.76558 | 6431 ft | 229 kts | 272° |
| 2026-05-09 18:29 | -33.04934 | -68.78358 | 6307 ft | 213 kts | 299° |
| 2026-05-09 18:29 | -33.03876 | -68.79511 | 6108 ft | 212 kts | 342° |
| 2026-05-09 18:29 | -33.02412 | -68.79748 | 5799 ft | 214 kts | 359° |
| 2026-05-09 18:30 | -33.00945 | -68.79702 | 5529 ft | 209 kts | 5° |
| 2026-05-09 18:30 | -32.99550 | -68.79575 | 5354 ft | 194 kts | 3° |
| 2026-05-09 18:30 | -32.98226 | -68.79522 | 5136 ft | 188 kts | 2° |
| 2026-05-09 18:30 | -32.96939 | -68.79495 | 4871 ft | 182 kts | 1° |
| 2026-05-09 18:31 | -32.95690 | -68.79474 | 4612 ft | 176 kts | 1° |
| 2026-05-09 18:31 | -32.94505 | -68.79456 | 4390 ft | 163 kts | 1° |
| 2026-05-09 18:31 | -32.93424 | -68.79440 | 4170 ft | 149 kts | 1° |
| 2026-05-09 18:31 | -32.92412 | -68.79431 | 3955 ft | 142 kts | 0° |
| 2026-05-09 18:32 | -32.91440 | -68.79416 | 3752 ft | 136 kts | 1° |
| 2026-05-09 18:32 | -32.90496 | -68.79392 | 3612 ft | 135 kts | 2° |
| 2026-05-09 18:32 | -32.89561 | -68.79381 | 3441 ft | 135 kts | 0° |
| 2026-05-09 18:32 | -32.88628 | -68.79371 | 3254 ft | 137 kts | 0° |
| 2026-05-09 18:33 | -32.87685 | -68.79360 | 3095 ft | 136 kts | 1° |
| 2026-05-09 18:33 | -32.86739 | -68.79375 | 2825 ft | 136 kts | 1° |
| 2026-05-09 18:33 | -32.85800 | -68.79345 | 2659 ft | 135 kts | 3° |
| 2026-05-09 18:33 | -32.84866 | -68.79328 | 2483 ft | 134 kts | 1° |
| 2026-05-09 18:34 | -32.84249 | -68.79309 | 2362 ft | 134 kts | 1° |
| 2026-05-09 18:34 | -32.83415 | -68.79294 | 2326 ft | 98 kts | 360° |
| 2026-05-09 18:34 | -32.82811 | -68.79283 | 2332 ft | 33 kts | 1° |
| 2026-05-09 18:34 | -32.82625 | -68.79279 | 2331 ft | 18 kts | 1° |
| 2026-05-09 18:35 | -32.82543 | -68.79356 | 2330 ft | 19 kts | 268° |
| 2026-05-09 18:35 | -32.82594 | -68.79436 | 2332 ft | 19 kts | 228° |
| 2026-05-09 18:35 | -32.82660 | -68.79539 | 2329 ft | 16 kts | 247° |
| 2026-05-09 18:35 | -32.82671 | -68.79656 | 2329 ft | 11 kts | 271° |
| 2026-05-09 18:36 | -32.82714 | -68.79707 | 2329 ft | 11 kts | 182° |
| 2026-05-09 18:36 | -32.82756 | -68.79729 | 2329 ft | 6 kts | 246° |
| 2026-05-09 18:36 | -32.82764 | -68.79773 | 2329 ft | 2 kts | 266° |
| 2026-05-09 18:36 | -32.82764 | -68.79783 | 2329 ft | 0 kts | 266° |